sensor_id;sensor_type;location;lat;lon;timestamp;pressure;altitude;pressure_sealevel;temperature;humidity
10127;BME280;13080;42.608;23.362;2023-02-21T00:02:06;151557.13;;;1.79;81.36
10127;BME280;13080;42.608;23.362;2023-02-21T00:04:50;151537.81;;;1.71;81.62
10127;BME280;13080;42.608;23.362;2023-02-21T00:07:52;151539.09;;;1.72;81.05
10127;BME280;13080;42.608;23.362;2023-02-21T00:10:36;151539.09;;;1.72;80.88
10127;BME280;13080;42.608;23.362;2023-02-21T00:13:20;151535.22;;;1.70;81.77
10127;BME280;13080;42.608;23.362;2023-02-21T00:16:06;151527.50;;;1.67;81.88
10127;BME280;13080;42.608;23.362;2023-02-21T00:18:50;151530.03;;;1.68;81.31
10127;BME280;13080;42.608;23.362;2023-02-21T00:21:34;151528.78;;;1.67;81.76
10127;BME280;13080;42.608;23.362;2023-02-21T00:24:18;151519.78;;;1.64;80.80
10127;BME280;13080;42.608;23.362;2023-02-21T00:27:03;151519.78;;;1.64;81.30
10127;BME280;13080;42.608;23.362;2023-02-21T00:29:47;151510.72;;;1.60;81.70
10127;BME280;13080;42.608;23.362;2023-02-21T00:32:33;151523.59;;;1.65;81.74
10127;BME280;13080;42.608;23.362;2023-02-21T00:35:17;151531.38;;;1.69;80.71
10127;BME280;13080;42.608;23.362;2023-02-21T00:38:01;151539.09;;;1.72;81.41
10127;BME280;13080;42.608;23.362;2023-02-21T00:40:45;151526.22;;;1.66;81.83
10127;BME280;13080;42.608;23.362;2023-02-21T00:43:30;151517.16;;;1.63;81.46
10127;BME280;13080;42.608;23.362;2023-02-21T00:46:15;151503.00;;;1.57;82.11
10127;BME280;13080;42.608;23.362;2023-02-21T00:49:01;151517.16;;;1.63;82.38
10127;BME280;13080;42.608;23.362;2023-02-21T00:51:45;151551.97;;;1.77;81.97
10127;BME280;13080;42.608;23.362;2023-02-21T00:54:30;151550.69;;;1.76;82.52
10127;BME280;13080;42.608;23.362;2023-02-21T00:57:14;151559.75;;;1.80;82.42
10127;BME280;13080;42.608;23.362;2023-02-21T00:59:58;151577.78;;;1.87;82.50
10127;BME280;13080;42.608;23.362;2023-02-21T01:02:43;151570.06;;;1.84;81.77
10127;BME280;13080;42.608;23.362;2023-02-21T01:05:29;151568.75;;;1.83;81.75
10127;BME280;13080;42.608;23.362;2023-02-21T01:08:13;151557.13;;;1.79;81.47
10127;BME280;13080;42.608;23.362;2023-02-21T01:10:57;151570.06;;;1.84;82.17
10127;BME280;13080;42.608;23.362;2023-02-21T01:13:41;151572.63;;;1.85;81.70
10127;BME280;13080;42.608;23.362;2023-02-21T01:16:27;151573.91;;;1.85;81.32
10127;BME280;13080;42.608;23.362;2023-02-21T01:19:11;151586.84;;;1.91;81.49
10127;BME280;13080;42.608;23.362;2023-02-21T01:21:56;151602.28;;;1.97;80.94
10127;BME280;13080;42.608;23.362;2023-02-21T01:24:41;151632.00;;;2.08;80.18
10127;BME280;13080;42.608;23.362;2023-02-21T01:27:24;151653.88;;;2.17;79.51
10127;BME280;13080;42.608;23.362;2023-02-21T01:30:09;151661.66;;;2.20;79.60
10127;BME280;13080;42.608;23.362;2023-02-21T01:32:53;151660.38;;;2.20;79.51
10127;BME280;13080;42.608;23.362;2023-02-21T01:35:37;151660.38;;;2.20;79.51
10127;BME280;13080;42.608;23.362;2023-02-21T01:38:22;151664.22;;;2.21;79.34
10127;BME280;13080;42.608;23.362;2023-02-21T01:41:07;151705.53;;;2.38;78.47
10127;BME280;13080;42.608;23.362;2023-02-21T01:43:57;151673.25;;;2.25;78.83
10127;BME280;13080;42.608;23.362;2023-02-21T01:46:41;151669.38;;;2.23;78.76
10127;BME280;13080;42.608;23.362;2023-02-21T01:49:25;151687.41;;;2.31;78.47
10127;BME280;13080;42.608;23.362;2023-02-21T01:52:09;151661.66;;;2.20;79.71
10127;BME280;13080;42.608;23.362;2023-02-21T01:54:55;151638.44;;;2.11;78.91
10127;BME280;13080;42.608;23.362;2023-02-21T01:57:39;151642.25;;;2.13;78.62
10127;BME280;13080;42.608;23.362;2023-02-21T02:00:24;151646.16;;;2.14;79.41
10127;BME280;13080;42.608;23.362;2023-02-21T02:03:10;151655.19;;;2.18;78.73
10127;BME280;13080;42.608;23.362;2023-02-21T02:05:56;151639.72;;;2.12;79.57
10127;BME280;13080;42.608;23.362;2023-02-21T02:08:41;151620.34;;;2.04;79.96
10127;BME280;13080;42.608;23.362;2023-02-21T02:11:41;151620.34;;;2.04;79.26
10127;BME280;13080;42.608;23.362;2023-02-21T02:14:46;151637.09;;;2.11;79.25
10127;BME280;13080;42.608;23.362;2023-02-21T02:17:26;151634.53;;;2.10;79.37
10127;BME280;13080;42.608;23.362;2023-02-21T02:20:20;151652.59;;;2.17;78.40
10127;BME280;13080;42.608;23.362;2023-02-21T02:26:16;151638.44;;;2.11;79.39
10127;BME280;13080;42.608;23.362;2023-02-21T02:29:09;151644.88;;;2.14;79.05
10127;BME280;13080;42.608;23.362;2023-02-21T02:31:45;151639.72;;;2.12;79.22
10127;BME280;13080;42.608;23.362;2023-02-21T02:34:41;151664.22;;;2.21;79.25
10127;BME280;13080;42.608;23.362;2023-02-21T02:37:17;151659.03;;;2.19;79.26
10127;BME280;13080;42.608;23.362;2023-02-21T02:39:52;151648.72;;;2.15;80.15
10127;BME280;13080;42.608;23.362;2023-02-21T02:42:30;151639.72;;;2.12;79.76
10127;BME280;13080;42.608;23.362;2023-02-21T02:45:01;151634.53;;;2.10;79.58
10127;BME280;13080;42.608;23.362;2023-02-21T02:47:33;151637.09;;;2.11;79.42
10127;BME280;13080;42.608;23.362;2023-02-21T02:50:05;151632.00;;;2.08;79.62
10127;BME280;13080;42.608;23.362;2023-02-21T02:52:35;151624.22;;;2.05;79.12
10127;BME280;13080;42.608;23.362;2023-02-21T02:55:19;151633.28;;;2.09;78.97
10127;BME280;13080;42.608;23.362;2023-02-21T02:57:48;151630.66;;;2.08;79.86
10127;BME280;13080;42.608;23.362;2023-02-21T03:00:16;151634.53;;;2.10;79.17
10127;BME280;13080;42.608;23.362;2023-02-21T03:02:55;151644.88;;;2.14;78.89
10127;BME280;13080;42.608;23.362;2023-02-21T03:05:39;151617.78;;;2.03;79.38
10127;BME280;13080;42.608;23.362;2023-02-21T03:08:16;151625.50;;;2.06;78.98
10127;BME280;13080;42.608;23.362;2023-02-21T03:10:51;151611.31;;;2.00;78.80
10127;BME280;13080;42.608;23.362;2023-02-21T03:13:25;151591.94;;;1.93;79.18
10127;BME280;13080;42.608;23.362;2023-02-21T03:15:59;151591.94;;;1.93;79.08
10127;BME280;13080;42.608;23.362;2023-02-21T03:18:32;151573.91;;;1.85;80.06
10127;BME280;13080;42.608;23.362;2023-02-21T03:21:04;151561.03;;;1.80;80.16
10127;BME280;13080;42.608;23.362;2023-02-21T03:23:35;151558.41;;;1.79;79.61
10127;BME280;13080;42.608;23.362;2023-02-21T03:26:05;151570.06;;;1.84;80.61
10127;BME280;13080;42.608;23.362;2023-02-21T03:28:35;151573.91;;;1.85;80.42
10127;BME280;13080;42.608;23.362;2023-02-21T03:31:04;151573.91;;;1.85;80.47
10127;BME280;13080;42.608;23.362;2023-02-21T03:33:33;151576.50;;;1.86;80.13
10127;BME280;13080;42.608;23.362;2023-02-21T03:36:04;151588.13;;;1.91;80.92
10127;BME280;13080;42.608;23.362;2023-02-21T03:38:31;151604.88;;;1.98;80.88
10127;BME280;13080;42.608;23.362;2023-02-21T03:40:58;151615.22;;;2.02;80.21
10127;BME280;13080;42.608;23.362;2023-02-21T03:43:25;151608.72;;;1.99;80.05
10127;BME280;13080;42.608;23.362;2023-02-21T03:45:51;151619.06;;;2.03;80.55
10127;BME280;13080;42.608;23.362;2023-02-21T03:48:18;151624.22;;;2.05;79.94
10127;BME280;13080;42.608;23.362;2023-02-21T03:50:45;151624.22;;;2.05;80.36
10127;BME280;13080;42.608;23.362;2023-02-21T03:53:13;151657.75;;;2.19;79.82
10127;BME280;13080;42.608;23.362;2023-02-21T03:55:40;151661.66;;;2.20;78.85
10127;BME280;13080;42.608;23.362;2023-02-21T03:58:07;151660.38;;;2.20;79.05
10127;BME280;13080;42.608;23.362;2023-02-21T04:00:33;151657.75;;;2.19;78.38
10127;BME280;13080;42.608;23.362;2023-02-21T04:03:00;151647.44;;;2.15;78.95
10127;BME280;13080;42.608;23.362;2023-02-21T04:05:27;151653.88;;;2.17;78.91
10127;BME280;13080;42.608;23.362;2023-02-21T04:07:54;151664.22;;;2.21;78.47
10127;BME280;13080;42.608;23.362;2023-02-21T04:10:22;151651.31;;;2.16;78.86
10127;BME280;13080;42.608;23.362;2023-02-21T04:12:48;151662.94;;;2.21;78.57
10127;BME280;13080;42.608;23.362;2023-02-21T04:15:15;151673.25;;;2.25;78.09
10127;BME280;13080;42.608;23.362;2023-02-21T04:17:42;151673.25;;;2.25;78.32
10127;BME280;13080;42.608;23.362;2023-02-21T04:20:09;151726.13;;;2.46;77.52
10127;BME280;13080;42.608;23.362;2023-02-21T04:22:36;151693.88;;;2.33;78.50
10127;BME280;13080;42.608;23.362;2023-02-21T04:25:05;151675.81;;;2.26;78.00
10127;BME280;13080;42.608;23.362;2023-02-21T04:27:33;151661.66;;;2.20;78.99
10127;BME280;13080;42.608;23.362;2023-02-21T04:30:00;151630.66;;;2.08;78.87
10127;BME280;13080;42.608;23.362;2023-02-21T04:32:26;151641.00;;;2.12;78.87
10127;BME280;13080;42.608;23.362;2023-02-21T04:34:53;151611.31;;;2.00;79.35
10127;BME280;13080;42.608;23.362;2023-02-21T04:37:21;151599.72;;;1.96;79.97
10127;BME280;13080;42.608;23.362;2023-02-21T04:39:48;151576.50;;;1.86;80.34
10127;BME280;13080;42.608;23.362;2023-02-21T04:42:14;151579.06;;;1.87;80.72
10127;BME280;13080;42.608;23.362;2023-02-21T04:44:43;151568.75;;;1.83;81.53
10127;BME280;13080;42.608;23.362;2023-02-21T04:47:09;151553.31;;;1.77;81.43
10127;BME280;13080;42.608;23.362;2023-02-21T04:49:36;151561.03;;;1.80;81.00
10127;BME280;13080;42.608;23.362;2023-02-21T04:52:03;151563.56;;;1.81;81.45
10127;BME280;13080;42.608;23.362;2023-02-21T04:54:30;151561.03;;;1.80;81.28
10127;BME280;13080;42.608;23.362;2023-02-21T04:56:57;151559.75;;;1.80;80.89
10127;BME280;13080;42.608;23.362;2023-02-21T04:59:23;151550.69;;;1.76;81.27
10127;BME280;13080;42.608;23.362;2023-02-21T05:01:51;151536.53;;;1.71;81.34
10127;BME280;13080;42.608;23.362;2023-02-21T05:04:18;151542.97;;;1.73;81.24
10127;BME280;13080;42.608;23.362;2023-02-21T05:06:45;151544.25;;;1.74;81.18
10127;BME280;13080;42.608;23.362;2023-02-21T05:09:11;151580.34;;;1.88;80.72
10127;BME280;13080;42.608;23.362;2023-02-21T05:11:38;151548.13;;;1.75;80.58
10127;BME280;13080;42.608;23.362;2023-02-21T05:14:05;151557.13;;;1.79;81.01
10127;BME280;13080;42.608;23.362;2023-02-21T05:16:32;151561.03;;;1.80;80.87
10127;BME280;13080;42.608;23.362;2023-02-21T05:19:00;151584.22;;;1.90;80.47
10127;BME280;13080;42.608;23.362;2023-02-21T05:21:27;151584.22;;;1.90;80.17
10127;BME280;13080;42.608;23.362;2023-02-21T05:23:54;151590.69;;;1.92;80.36
10127;BME280;13080;42.608;23.362;2023-02-21T05:26:23;151589.41;;;1.92;80.19
10127;BME280;13080;42.608;23.362;2023-02-21T05:28:51;151570.06;;;1.84;80.26
10127;BME280;13080;42.608;23.362;2023-02-21T05:31:18;151554.56;;;1.78;80.79
10127;BME280;13080;42.608;23.362;2023-02-21T05:33:45;151550.69;;;1.76;81.08
10127;BME280;13080;42.608;23.362;2023-02-21T05:36:14;151639.72;;;2.12;79.10
10127;BME280;13080;42.608;23.362;2023-02-21T05:38:46;151668.09;;;2.23;79.70
10127;BME280;13080;42.608;23.362;2023-02-21T05:41:13;151711.97;;;2.40;77.82
10127;BME280;13080;42.608;23.362;2023-02-21T05:43:42;151719.69;;;2.43;77.51
10127;BME280;13080;42.608;23.362;2023-02-21T05:46:16;151750.69;;;2.56;77.63
10127;BME280;13080;42.608;23.362;2023-02-21T05:48:43;151746.81;;;2.54;77.29
10127;BME280;13080;42.608;23.362;2023-02-21T05:51:10;151723.59;;;2.45;77.85
10127;BME280;13080;42.608;23.362;2023-02-21T05:53:38;151711.97;;;2.40;77.59
10127;BME280;13080;42.608;23.362;2023-02-21T05:56:05;151748.09;;;2.55;77.51
10127;BME280;13080;42.608;23.362;2023-02-21T05:58:33;151782.91;;;2.68;76.68
10127;BME280;13080;42.608;23.362;2023-02-21T06:00:59;151764.88;;;2.61;76.76
10127;BME280;13080;42.608;23.362;2023-02-21T06:03:26;151768.75;;;2.63;77.13
10127;BME280;13080;42.608;23.362;2023-02-21T06:05:53;151767.47;;;2.62;77.17
10127;BME280;13080;42.608;23.362;2023-02-21T06:08:19;151775.19;;;2.65;76.90
10127;BME280;13080;42.608;23.362;2023-02-21T06:10:47;151786.81;;;2.70;76.53
10127;BME280;13080;42.608;23.362;2023-02-21T06:13:14;151789.38;;;2.71;76.81
10127;BME280;13080;42.608;23.362;2023-02-21T06:15:41;151798.41;;;2.75;77.06
10127;BME280;13080;42.608;23.362;2023-02-21T06:18:08;151824.25;;;2.85;76.52
10127;BME280;13080;42.608;23.362;2023-02-21T06:20:35;151848.78;;;2.95;76.46
10127;BME280;13080;42.608;23.362;2023-02-21T06:23:01;151860.38;;;2.99;76.38
10127;BME280;13080;42.608;23.362;2023-02-21T06:25:28;151866.84;;;3.02;75.63
10127;BME280;13080;42.608;23.362;2023-02-21T06:27:56;151887.50;;;3.10;75.45
10127;BME280;13080;42.608;23.362;2023-02-21T06:30:24;151902.97;;;3.16;75.52
10127;BME280;13080;42.608;23.362;2023-02-21T06:32:50;151919.75;;;3.23;75.46
10127;BME280;13080;42.608;23.362;2023-02-21T06:35:17;151933.97;;;3.28;74.95
10127;BME280;13080;42.608;23.362;2023-02-21T06:37:44;151937.88;;;3.30;74.67
10127;BME280;13080;42.608;23.362;2023-02-21T06:40:11;151964.94;;;3.41;74.92
10127;BME280;13080;42.608;23.362;2023-02-21T06:42:38;151974.00;;;3.44;73.90
10127;BME280;13080;42.608;23.362;2023-02-21T06:45:07;151985.63;;;3.49;73.81
10127;BME280;13080;42.608;23.362;2023-02-21T06:47:33;152007.59;;;3.58;74.25
10127;BME280;13080;42.608;23.362;2023-02-21T06:50:00;152021.81;;;3.63;73.91
10127;BME280;13080;42.608;23.362;2023-02-21T06:52:29;152033.44;;;3.68;73.85
10127;BME280;13080;42.608;23.362;2023-02-21T06:54:55;152078.66;;;3.86;72.05
10127;BME280;13080;42.608;23.362;2023-02-21T06:57:22;152090.28;;;3.90;72.00
10127;BME280;13080;42.608;23.362;2023-02-21T06:59:49;152099.31;;;3.94;73.01
10127;BME280;13080;42.608;23.362;2023-02-21T07:02:18;152136.78;;;4.09;71.07
10127;BME280;13080;42.608;23.362;2023-02-21T07:04:46;152175.56;;;4.24;71.21
10127;BME280;13080;42.608;23.362;2023-02-21T07:07:13;152229.81;;;4.46;69.84
10127;BME280;13080;42.608;23.362;2023-02-21T07:09:39;152272.50;;;4.63;69.16
10127;BME280;13080;42.608;23.362;2023-02-21T07:12:06;152284.13;;;4.67;69.36
10127;BME280;13080;42.608;23.362;2023-02-21T07:14:34;152322.94;;;4.83;69.08
10127;BME280;13080;42.608;23.362;2023-02-21T07:17:01;152356.53;;;4.96;67.79
10127;BME280;13080;42.608;23.362;2023-02-21T07:19:29;152409.53;;;5.17;67.55
10127;BME280;13080;42.608;23.362;2023-02-21T07:21:55;152426.38;;;5.24;67.69
10127;BME280;13080;42.608;23.362;2023-02-21T07:24:22;152452.25;;;5.34;66.68
10127;BME280;13080;42.608;23.362;2023-02-21T07:26:49;152467.75;;;5.40;67.36
10127;BME280;13080;42.608;23.362;2023-02-21T07:29:16;152496.19;;;5.51;65.70
10127;BME280;13080;42.608;23.362;2023-02-21T07:31:42;152515.63;;;5.59;66.22
10127;BME280;13080;42.608;23.362;2023-02-21T07:34:09;152532.44;;;5.66;64.77
10127;BME280;13080;42.608;23.362;2023-02-21T07:36:38;152545.38;;;5.71;65.55
10127;BME280;13080;42.608;23.362;2023-02-21T07:39:05;152545.38;;;5.71;65.00
10127;BME280;13080;42.608;23.362;2023-02-21T07:41:32;152553.13;;;5.74;64.82
10127;BME280;13080;42.608;23.362;2023-02-21T07:43:59;152572.56;;;5.81;65.41
10127;BME280;13080;42.608;23.362;2023-02-21T07:46:28;152617.91;;;5.99;63.54
10127;BME280;13080;42.608;23.362;2023-02-21T07:48:55;152602.31;;;5.93;63.71
10127;BME280;13080;42.608;23.362;2023-02-21T07:51:22;152601.03;;;5.93;64.84
10127;BME280;13080;42.608;23.362;2023-02-21T07:53:50;152582.91;;;5.86;64.16
10127;BME280;13080;42.608;23.362;2023-02-21T07:56:16;152601.03;;;5.93;64.48
10127;BME280;13080;42.608;23.362;2023-02-21T07:58:43;152607.53;;;5.95;64.34
10127;BME280;13080;42.608;23.362;2023-02-21T08:01:10;152615.28;;;5.98;65.19
10127;BME280;13080;42.608;23.362;2023-02-21T08:03:37;152614.00;;;5.98;64.82
10127;BME280;13080;42.608;23.362;2023-02-21T08:06:05;152615.28;;;5.98;64.80
10127;BME280;13080;42.608;23.362;2023-02-21T08:08:33;152647.66;;;6.11;63.67
10127;BME280;13080;42.608;23.362;2023-02-21T08:11:01;152654.13;;;6.14;63.70
10127;BME280;13080;42.608;23.362;2023-02-21T08:13:28;152645.09;;;6.10;64.26
10127;BME280;13080;42.608;23.362;2023-02-21T08:15:55;152648.94;;;6.12;63.53
10127;BME280;13080;42.608;23.362;2023-02-21T08:18:22;152641.19;;;6.09;64.24
10127;BME280;13080;42.608;23.362;2023-02-21T08:20:49;152639.91;;;6.08;65.27
10127;BME280;13080;42.608;23.362;2023-02-21T08:23:16;152636.00;;;6.07;64.60
10127;BME280;13080;42.608;23.362;2023-02-21T08:25:44;152643.75;;;6.10;65.01
10127;BME280;13080;42.608;23.362;2023-02-21T08:28:13;152682.59;;;6.25;64.43
10127;BME280;13080;42.608;23.362;2023-02-21T08:30:40;152716.25;;;6.38;64.44
10127;BME280;13080;42.608;23.362;2023-02-21T08:33:07;152738.28;;;6.47;63.76
10127;BME280;13080;42.608;23.362;2023-02-21T08:35:33;152766.75;;;6.58;64.44
10127;BME280;13080;42.608;23.362;2023-02-21T08:38:01;152783.59;;;6.65;63.99
10127;BME280;13080;42.608;23.362;2023-02-21T08:40:28;152796.53;;;6.70;63.60
10127;BME280;13080;42.608;23.362;2023-02-21T08:42:57;152841.84;;;6.88;63.49
10127;BME280;13080;42.608;23.362;2023-02-21T08:45:27;152866.47;;;6.98;61.00
10127;BME280;13080;42.608;23.362;2023-02-21T08:47:54;152889.78;;;7.07;61.54
10127;BME280;13080;42.608;23.362;2023-02-21T08:50:23;152910.53;;;7.15;62.31
10127;BME280;13080;42.608;23.362;2023-02-21T08:52:51;152954.53;;;7.33;60.57
10127;BME280;13080;42.608;23.362;2023-02-21T08:55:18;152962.34;;;7.36;60.48
10127;BME280;13080;42.608;23.362;2023-02-21T08:57:47;152985.66;;;7.45;60.36
10127;BME280;13080;42.608;23.362;2023-02-21T09:00:14;153012.88;;;7.56;58.99
10127;BME280;13080;42.608;23.362;2023-02-21T09:02:43;153041.38;;;7.67;58.71
10127;BME280;13080;42.608;23.362;2023-02-21T09:05:12;153043.97;;;7.68;58.07
10127;BME280;13080;42.608;23.362;2023-02-21T09:07:39;153053.03;;;7.72;58.70
10127;BME280;13080;42.608;23.362;2023-02-21T09:10:07;153059.53;;;7.74;57.43
10127;BME280;13080;42.608;23.362;2023-02-21T09:12:37;153080.22;;;7.82;57.40
10127;BME280;13080;42.608;23.362;2023-02-21T09:15:05;153073.75;;;7.80;57.63
10127;BME280;13080;42.608;23.362;2023-02-21T09:17:32;153082.84;;;7.83;57.79
10127;BME280;13080;42.608;23.362;2023-02-21T09:20:01;153116.53;;;7.97;57.70
10127;BME280;13080;42.608;23.362;2023-02-21T09:22:31;153133.41;;;8.03;58.76
10127;BME280;13080;42.608;23.362;2023-02-21T09:24:58;153155.44;;;8.12;57.11
10127;BME280;13080;42.608;23.362;2023-02-21T09:27:25;153168.38;;;8.17;57.29
10127;BME280;13080;42.608;23.362;2023-02-21T09:30:02;153204.66;;;8.31;56.62
10127;BME280;13080;42.608;23.362;2023-02-21T09:32:29;153226.78;;;8.40;56.54
10127;BME280;13080;42.608;23.362;2023-02-21T09:34:56;153256.63;;;8.52;56.43
10127;BME280;13080;42.608;23.362;2023-02-21T09:37:24;153261.78;;;8.54;55.22
10127;BME280;13080;42.608;23.362;2023-02-21T09:39:52;153273.44;;;8.59;56.60
10127;BME280;13080;42.608;23.362;2023-02-21T09:42:21;153317.53;;;8.76;56.21
10127;BME280;13080;42.608;23.362;2023-02-21T09:44:50;153330.56;;;8.81;56.21
10127;BME280;13080;42.608;23.362;2023-02-21T09:47:25;153361.66;;;8.93;55.12
10127;BME280;13080;42.608;23.362;2023-02-21T09:49:58;153400.59;;;9.09;54.12
10127;BME280;13080;42.608;23.362;2023-02-21T09:52:31;153431.69;;;9.21;54.41
10127;BME280;13080;42.608;23.362;2023-02-21T09:55:02;153464.16;;;9.34;53.49
10127;BME280;13080;42.608;23.362;2023-02-21T09:57:33;153491.41;;;9.45;51.11
10127;BME280;13080;42.608;23.362;2023-02-21T10:00:00;153557.59;;;9.71;51.23
10127;BME280;13080;42.608;23.362;2023-02-21T10:02:40;153605.63;;;9.90;51.44
10127;BME280;13080;42.608;23.362;2023-02-21T10:05:17;153634.16;;;10.01;50.73
10127;BME280;13080;42.608;23.362;2023-02-21T10:07:53;153695.22;;;10.25;46.85
10127;BME280;13080;42.608;23.362;2023-02-21T10:10:28;153731.59;;;10.39;47.84
10127;BME280;13080;42.608;23.362;2023-02-21T10:13:04;153774.47;;;10.56;46.29
10127;BME280;13080;42.608;23.362;2023-02-21T10:15:39;153797.84;;;10.66;47.60
10127;BME280;13080;42.608;23.362;2023-02-21T10:18:15;153835.47;;;10.80;46.69
10127;BME280;13080;42.608;23.362;2023-02-21T10:20:48;153844.59;;;10.84;47.60
10127;BME280;13080;42.608;23.362;2023-02-21T10:23:22;153867.97;;;10.93;46.11
10127;BME280;13080;42.608;23.362;2023-02-21T10:25:53;153887.50;;;11.01;46.85
10127;BME280;13080;42.608;23.362;2023-02-21T10:28:24;153903.03;;;11.07;46.12
10127;BME280;13080;42.608;23.362;2023-02-21T10:30:53;153961.56;;;11.30;44.83
10127;BME280;13080;42.608;23.362;2023-02-21T10:33:21;154014.81;;;11.51;42.98
10127;BME280;13080;42.608;23.362;2023-02-21T10:35:48;154068.09;;;11.72;41.18
10127;BME280;13080;42.608;23.362;2023-02-21T10:38:19;154082.41;;;11.78;42.62
10127;BME280;13080;42.608;23.362;2023-02-21T10:40:50;154137.03;;;11.99;40.68
10127;BME280;13080;42.608;23.362;2023-02-21T10:43:21;154213.78;;;12.30;39.84
10127;BME280;13080;42.608;23.362;2023-02-21T10:45:54;154281.41;;;12.56;38.85
10127;BME280;13080;42.608;23.362;2023-02-21T10:48:24;154343.84;;;12.81;37.46
10127;BME280;13080;42.608;23.362;2023-02-21T10:51:05;154391.97;;;13.00;35.59
10127;BME280;13080;42.608;23.362;2023-02-21T10:53:35;154453.13;;;13.24;34.07
10127;BME280;13080;42.608;23.362;2023-02-21T10:56:21;154484.41;;;13.36;35.58
10127;BME280;13080;42.608;23.362;2023-02-21T10:58:51;154462.28;;;13.27;34.88
10127;BME280;13080;42.608;23.362;2023-02-21T11:01:21;154496.16;;;13.41;34.33
10127;BME280;13080;42.608;23.362;2023-02-21T11:03:50;154546.88;;;13.61;33.47
10127;BME280;13080;42.608;23.362;2023-02-21T11:06:24;154597.66;;;13.81;34.68
10127;BME280;13080;42.608;23.362;2023-02-21T11:08:54;154640.63;;;13.98;31.92
10127;BME280;13080;42.608;23.362;2023-02-21T11:11:39;154682.28;;;14.14;30.88
10127;BME280;13080;42.608;23.362;2023-02-21T11:14:19;154696.63;;;14.20;31.46
10127;BME280;13080;42.608;23.362;2023-02-21T11:17:04;154720.06;;;14.29;31.20
10127;BME280;13080;42.608;23.362;2023-02-21T11:19:42;154717.44;;;14.28;30.39
10127;BME280;13080;42.608;23.362;2023-02-21T11:22:09;154729.16;;;14.32;30.72
10127;BME280;13080;42.608;23.362;2023-02-21T11:24:46;154763.03;;;14.46;30.16
10127;BME280;13080;42.608;23.362;2023-02-21T11:27:15;154772.16;;;14.49;30.35
10127;BME280;13080;42.608;23.362;2023-02-21T11:29:42;154782.59;;;14.53;31.04
10127;BME280;13080;42.608;23.362;2023-02-21T11:32:12;154808.66;;;14.64;30.94
10127;BME280;13080;42.608;23.362;2023-02-21T11:34:44;154823.00;;;14.69;30.60
10127;BME280;13080;42.608;23.362;2023-02-21T11:37:13;154834.75;;;14.74;30.69
10127;BME280;13080;42.608;23.362;2023-02-21T11:39:40;154846.47;;;14.79;30.08
10127;BME280;13080;42.608;23.362;2023-02-21T11:42:24;154841.25;;;14.76;30.37
10127;BME280;13080;42.608;23.362;2023-02-21T11:45:06;154849.03;;;14.80;30.55
10127;BME280;13080;42.608;23.362;2023-02-21T11:47:40;154865.97;;;14.86;31.40
10127;BME280;13080;42.608;23.362;2023-02-21T11:50:12;154876.41;;;14.90;31.99
10127;BME280;13080;42.608;23.362;2023-02-21T11:52:45;154890.78;;;14.96;30.29
10127;BME280;13080;42.608;23.362;2023-02-21T11:55:15;154893.34;;;14.97;31.25
10127;BME280;13080;42.608;23.362;2023-02-21T11:57:50;154933.75;;;15.13;30.66
10127;BME280;13080;42.608;23.362;2023-02-21T12:00:26;154935.09;;;15.13;30.93
10127;BME280;13080;42.608;23.362;2023-02-21T12:03:09;154949.41;;;15.19;30.63
10127;BME280;13080;42.608;23.362;2023-02-21T12:05:52;154931.16;;;15.12;30.37
10127;BME280;13080;42.608;23.362;2023-02-21T12:08:30;154918.16;;;15.07;30.90
10127;BME280;13080;42.608;23.362;2023-02-21T12:13:54;154950.69;;;15.20;30.66
10127;BME280;13080;42.608;23.362;2023-02-21T12:16:34;154958.53;;;15.23;30.63
10127;BME280;13080;42.608;23.362;2023-02-21T12:19:21;154922.03;;;15.08;31.03
10127;BME280;13080;42.608;23.362;2023-02-21T12:22:00;154894.66;;;14.97;30.58
10127;BME280;13080;42.608;23.362;2023-02-21T12:24:43;154862.09;;;14.85;30.84
10127;BME280;13080;42.608;23.362;2023-02-21T12:27:16;154845.16;;;14.78;31.20
10127;BME280;13080;42.608;23.362;2023-02-21T12:29:59;154865.97;;;14.86;31.79
10127;BME280;13080;42.608;23.362;2023-02-21T12:32:50;154851.69;;;14.81;30.64
10127;BME280;13080;42.608;23.362;2023-02-21T12:35:46;154828.22;;;14.71;31.23
10127;BME280;13080;42.608;23.362;2023-02-21T12:38:22;154817.81;;;14.67;31.74
10127;BME280;13080;42.608;23.362;2023-02-21T12:41:00;154841.25;;;14.76;31.99
10127;BME280;13080;42.608;23.362;2023-02-21T12:43:48;154838.66;;;14.75;32.02
10127;BME280;13080;42.608;23.362;2023-02-21T12:46:24;154834.75;;;14.74;31.52
10127;BME280;13080;42.608;23.362;2023-02-21T12:48:56;154843.88;;;14.78;32.11
10127;BME280;13080;42.608;23.362;2023-02-21T12:51:28;154855.59;;;14.82;31.25
10127;BME280;13080;42.608;23.362;2023-02-21T12:54:00;154846.47;;;14.79;31.29
10127;BME280;13080;42.608;23.362;2023-02-21T12:56:33;154846.47;;;14.79;31.28
10127;BME280;13080;42.608;23.362;2023-02-21T12:59:05;154860.81;;;14.84;31.47
10127;BME280;13080;42.608;23.362;2023-02-21T13:01:38;154855.59;;;14.82;31.88
10127;BME280;13080;42.608;23.362;2023-02-21T13:04:15;154877.72;;;14.91;31.45
10127;BME280;13080;42.608;23.362;2023-02-21T13:06:48;154897.28;;;14.99;31.06
10127;BME280;13080;42.608;23.362;2023-02-21T13:09:23;154882.94;;;14.93;31.69
10127;BME280;13080;42.608;23.362;2023-02-21T13:11:58;154911.59;;;15.04;30.25
10127;BME280;13080;42.608;23.362;2023-02-21T13:14:31;154945.47;;;15.17;30.51
10127;BME280;13080;42.608;23.362;2023-02-21T13:17:00;154941.59;;;15.16;30.66
10127;BME280;13080;42.608;23.362;2023-02-21T13:19:34;154914.22;;;15.05;30.87
10127;BME280;13080;42.608;23.362;2023-02-21T13:25:38;154979.34;;;15.31;28.93
10127;BME280;13080;42.608;23.362;2023-02-21T13:28:14;154971.56;;;15.28;30.00